sensor_id;sensor_type;location;lat;lon;timestamp;temperature;humidity
14908;DHT22;7545;52.092;7.006;2023-09-18T00:00:21;18.90;99.90
14908;DHT22;7545;52.092;7.006;2023-09-18T00:02:47;18.90;99.90
14908;DHT22;7545;52.092;7.006;2023-09-18T00:05:13;18.90;99.90
14908;DHT22;7545;52.092;7.006;2023-09-18T00:07:44;18.80;99.90
14908;DHT22;7545;52.092;7.006;2023-09-18T00:10:13;18.80;99.90
14908;DHT22;7545;52.092;7.006;2023-09-18T00:12:39;18.80;99.90
14908;DHT22;7545;52.092;7.006;2023-09-18T00:15:06;18.80;99.90
14908;DHT22;7545;52.092;7.006;2023-09-18T00:17:35;18.80;99.90
14908;DHT22;7545;52.092;7.006;2023-09-18T00:20:00;18.80;99.90
14908;DHT22;7545;52.092;7.006;2023-09-18T00:22:26;18.80;99.90
14908;DHT22;7545;52.092;7.006;2023-09-18T00:24:52;18.80;99.90
14908;DHT22;7545;52.092;7.006;2023-09-18T00:27:17;18.80;99.90
14908;DHT22;7545;52.092;7.006;2023-09-18T00:29:43;18.80;99.90
14908;DHT22;7545;52.092;7.006;2023-09-18T00:32:08;18.80;99.90
14908;DHT22;7545;52.092;7.006;2023-09-18T00:34:34;18.80;99.90
14908;DHT22;7545;52.092;7.006;2023-09-18T00:37:00;18.70;99.90
14908;DHT22;7545;52.092;7.006;2023-09-18T00:39:26;18.70;99.90
14908;DHT22;7545;52.092;7.006;2023-09-18T00:41:52;18.70;99.90
14908;DHT22;7545;52.092;7.006;2023-09-18T00:44:24;18.70;99.90
14908;DHT22;7545;52.092;7.006;2023-09-18T00:46:52;18.70;99.90
14908;DHT22;7545;52.092;7.006;2023-09-18T00:49:18;18.70;99.90
14908;DHT22;7545;52.092;7.006;2023-09-18T00:51:44;18.70;99.90
14908;DHT22;7545;52.092;7.006;2023-09-18T00:54:11;18.70;99.90
14908;DHT22;7545;52.092;7.006;2023-09-18T00:56:37;18.70;99.90
14908;DHT22;7545;52.092;7.006;2023-09-18T00:59:02;18.60;99.90
14908;DHT22;7545;52.092;7.006;2023-09-18T01:01:28;18.60;99.90
14908;DHT22;7545;52.092;7.006;2023-09-18T01:03:56;18.60;99.90
14908;DHT22;7545;52.092;7.006;2023-09-18T01:06:24;18.70;99.90
14908;DHT22;7545;52.092;7.006;2023-09-18T01:08:53;18.70;99.90
14908;DHT22;7545;52.092;7.006;2023-09-18T01:11:26;18.60;99.90
14908;DHT22;7545;52.092;7.006;2023-09-18T01:14:27;18.60;99.90
14908;DHT22;7545;52.092;7.006;2023-09-18T01:16:57;18.60;99.90
14908;DHT22;7545;52.092;7.006;2023-09-18T01:19:55;18.60;99.90
14908;DHT22;7545;52.092;7.006;2023-09-18T01:22:20;18.60;99.90
14908;DHT22;7545;52.092;7.006;2023-09-18T01:24:48;18.60;99.90
14908;DHT22;7545;52.092;7.006;2023-09-18T01:27:16;18.60;99.90
14908;DHT22;7545;52.092;7.006;2023-09-18T01:29:43;18.60;99.90
14908;DHT22;7545;52.092;7.006;2023-09-18T01:32:09;18.60;99.90
14908;DHT22;7545;52.092;7.006;2023-09-18T01:34:37;18.60;99.90
14908;DHT22;7545;52.092;7.006;2023-09-18T01:37:05;18.60;99.90
14908;DHT22;7545;52.092;7.006;2023-09-18T01:39:32;18.60;99.90
14908;DHT22;7545;52.092;7.006;2023-09-18T01:41:59;18.60;99.90
14908;DHT22;7545;52.092;7.006;2023-09-18T01:44:27;18.60;99.90
14908;DHT22;7545;52.092;7.006;2023-09-18T01:46:53;18.60;99.90
14908;DHT22;7545;52.092;7.006;2023-09-18T01:49:32;18.60;99.90
14908;DHT22;7545;52.092;7.006;2023-09-18T01:51:58;18.60;99.90
14908;DHT22;7545;52.092;7.006;2023-09-18T01:54:24;18.60;99.90
14908;DHT22;7545;52.092;7.006;2023-09-18T01:56:51;18.60;99.90
14908;DHT22;7545;52.092;7.006;2023-09-18T01:59:17;18.70;99.90
14908;DHT22;7545;52.092;7.006;2023-09-18T02:01:43;18.70;99.90
14908;DHT22;7545;52.092;7.006;2023-09-18T02:04:09;18.70;99.90
14908;DHT22;7545;52.092;7.006;2023-09-18T02:06:35;18.70;99.90
14908;DHT22;7545;52.092;7.006;2023-09-18T02:09:01;18.70;99.90
14908;DHT22;7545;52.092;7.006;2023-09-18T02:11:27;18.70;99.90
14908;DHT22;7545;52.092;7.006;2023-09-18T02:13:53;18.70;99.90
14908;DHT22;7545;52.092;7.006;2023-09-18T02:16:18;18.70;99.90
14908;DHT22;7545;52.092;7.006;2023-09-18T02:18:46;18.70;99.90
14908;DHT22;7545;52.092;7.006;2023-09-18T02:21:22;18.70;99.90
14908;DHT22;7545;52.092;7.006;2023-09-18T02:23:51;18.70;99.90
14908;DHT22;7545;52.092;7.006;2023-09-18T02:26:19;18.60;99.90
14908;DHT22;7545;52.092;7.006;2023-09-18T02:28:46;18.70;99.90
14908;DHT22;7545;52.092;7.006;2023-09-18T02:31:11;18.70;99.90
14908;DHT22;7545;52.092;7.006;2023-09-18T02:33:38;18.70;99.90
14908;DHT22;7545;52.092;7.006;2023-09-18T02:36:03;18.70;99.90
14908;DHT22;7545;52.092;7.006;2023-09-18T02:38:29;18.70;99.90
14908;DHT22;7545;52.092;7.006;2023-09-18T02:40:58;18.70;99.90
14908;DHT22;7545;52.092;7.006;2023-09-18T02:43:23;18.80;99.90
14908;DHT22;7545;52.092;7.006;2023-09-18T02:45:49;18.80;99.90
14908;DHT22;7545;52.092;7.006;2023-09-18T02:48:16;18.80;99.90
14908;DHT22;7545;52.092;7.006;2023-09-18T02:50:41;18.80;99.90
14908;DHT22;7545;52.092;7.006;2023-09-18T02:53:11;18.80;99.90
14908;DHT22;7545;52.092;7.006;2023-09-18T02:55:36;18.80;99.90
14908;DHT22;7545;52.092;7.006;2023-09-18T02:58:02;18.80;99.90
14908;DHT22;7545;52.092;7.006;2023-09-18T03:00:28;18.80;99.90
14908;DHT22;7545;52.092;7.006;2023-09-18T03:02:54;18.80;99.90
14908;DHT22;7545;52.092;7.006;2023-09-18T03:05:19;18.90;99.90
14908;DHT22;7545;52.092;7.006;2023-09-18T03:07:45;18.90;99.90
14908;DHT22;7545;52.092;7.006;2023-09-18T03:10:11;18.90;99.90
14908;DHT22;7545;52.092;7.006;2023-09-18T03:12:40;18.90;99.90
14908;DHT22;7545;52.092;7.006;2023-09-18T03:15:06;18.90;99.90
14908;DHT22;7545;52.092;7.006;2023-09-18T03:17:32;18.90;99.90
14908;DHT22;7545;52.092;7.006;2023-09-18T03:19:57;18.90;99.90
14908;DHT22;7545;52.092;7.006;2023-09-18T03:22:23;18.90;99.90
14908;DHT22;7545;52.092;7.006;2023-09-18T03:24:48;18.90;99.90
14908;DHT22;7545;52.092;7.006;2023-09-18T03:27:14;18.90;99.90
14908;DHT22;7545;52.092;7.006;2023-09-18T03:29:40;18.90;99.90
14908;DHT22;7545;52.092;7.006;2023-09-18T03:32:05;18.90;99.90
14908;DHT22;7545;52.092;7.006;2023-09-18T03:34:31;18.90;99.90
14908;DHT22;7545;52.092;7.006;2023-09-18T03:36:57;19.00;99.90
14908;DHT22;7545;52.092;7.006;2023-09-18T03:39:22;19.00;99.90
14908;DHT22;7545;52.092;7.006;2023-09-18T03:41:48;19.00;99.90
14908;DHT22;7545;52.092;7.006;2023-09-18T03:44:14;19.00;99.90
14908;DHT22;7545;52.092;7.006;2023-09-18T03:46:40;19.00;99.90
14908;DHT22;7545;52.092;7.006;2023-09-18T03:49:05;19.00;99.90
14908;DHT22;7545;52.092;7.006;2023-09-18T03:51:32;19.00;99.90
14908;DHT22;7545;52.092;7.006;2023-09-18T03:53:57;19.00;99.90
14908;DHT22;7545;52.092;7.006;2023-09-18T03:56:23;19.00;99.90
14908;DHT22;7545;52.092;7.006;2023-09-18T03:58:48;19.00;99.90
14908;DHT22;7545;52.092;7.006;2023-09-18T04:01:17;19.00;99.90
14908;DHT22;7545;52.092;7.006;2023-09-18T04:03:42;19.00;99.90
14908;DHT22;7545;52.092;7.006;2023-09-18T04:06:08;19.00;99.90
14908;DHT22;7545;52.092;7.006;2023-09-18T04:08:34;19.00;99.90
14908;DHT22;7545;52.092;7.006;2023-09-18T04:11:00;19.10;99.90
14908;DHT22;7545;52.092;7.006;2023-09-18T04:13:26;19.10;99.90
14908;DHT22;7545;52.092;7.006;2023-09-18T04:15:52;19.10;99.90
14908;DHT22;7545;52.092;7.006;2023-09-18T04:18:22;19.10;99.90
14908;DHT22;7545;52.092;7.006;2023-09-18T04:20:48;19.10;99.90
14908;DHT22;7545;52.092;7.006;2023-09-18T04:23:18;19.10;99.90
14908;DHT22;7545;52.092;7.006;2023-09-18T04:25:45;19.10;99.90
14908;DHT22;7545;52.092;7.006;2023-09-18T04:28:18;19.10;99.90
14908;DHT22;7545;52.092;7.006;2023-09-18T04:30:44;19.20;99.90
14908;DHT22;7545;52.092;7.006;2023-09-18T04:33:10;19.20;99.90
14908;DHT22;7545;52.092;7.006;2023-09-18T04:35:38;19.20;99.90
14908;DHT22;7545;52.092;7.006;2023-09-18T04:38:05;19.20;99.90
14908;DHT22;7545;52.092;7.006;2023-09-18T04:40:31;19.20;99.90
14908;DHT22;7545;52.092;7.006;2023-09-18T04:43:01;19.30;99.90
14908;DHT22;7545;52.092;7.006;2023-09-18T04:45:27;19.30;99.90
14908;DHT22;7545;52.092;7.006;2023-09-18T04:47:53;19.30;99.90
14908;DHT22;7545;52.092;7.006;2023-09-18T04:50:19;19.30;99.90
14908;DHT22;7545;52.092;7.006;2023-09-18T04:52:45;19.30;99.90
14908;DHT22;7545;52.092;7.006;2023-09-18T04:55:11;19.30;99.90
14908;DHT22;7545;52.092;7.006;2023-09-18T04:57:38;19.30;99.90
14908;DHT22;7545;52.092;7.006;2023-09-18T05:00:04;19.30;99.90
14908;DHT22;7545;52.092;7.006;2023-09-18T05:02:38;19.30;99.90
14908;DHT22;7545;52.092;7.006;2023-09-18T05:05:04;19.30;99.90
14908;DHT22;7545;52.092;7.006;2023-09-18T05:07:30;19.30;99.90
14908;DHT22;7545;52.092;7.006;2023-09-18T05:09:56;19.40;99.90
14908;DHT22;7545;52.092;7.006;2023-09-18T05:12:22;19.40;99.90
14908;DHT22;7545;52.092;7.006;2023-09-18T05:14:48;19.40;99.90
14908;DHT22;7545;52.092;7.006;2023-09-18T05:17:16;19.50;99.90
14908;DHT22;7545;52.092;7.006;2023-09-18T05:19:42;19.40;99.90
14908;DHT22;7545;52.092;7.006;2023-09-18T05:22:09;19.40;99.90
14908;DHT22;7545;52.092;7.006;2023-09-18T05:24:38;19.40;99.90
14908;DHT22;7545;52.092;7.006;2023-09-18T05:27:04;19.40;99.90
14908;DHT22;7545;52.092;7.006;2023-09-18T05:29:32;19.40;99.90
14908;DHT22;7545;52.092;7.006;2023-09-18T05:31:57;19.40;99.90
14908;DHT22;7545;52.092;7.006;2023-09-18T05:34:23;19.40;99.90
14908;DHT22;7545;52.092;7.006;2023-09-18T05:36:49;19.40;99.90
14908;DHT22;7545;52.092;7.006;2023-09-18T05:39:15;19.40;99.90
14908;DHT22;7545;52.092;7.006;2023-09-18T05:41:41;19.30;99.90
14908;DHT22;7545;52.092;7.006;2023-09-18T05:44:07;19.30;99.90
14908;DHT22;7545;52.092;7.006;2023-09-18T05:46:36;19.30;99.90
14908;DHT22;7545;52.092;7.006;2023-09-18T05:49:02;19.30;99.90
14908;DHT22;7545;52.092;7.006;2023-09-18T05:51:29;19.30;99.90
14908;DHT22;7545;52.092;7.006;2023-09-18T05:53:55;19.30;99.90
14908;DHT22;7545;52.092;7.006;2023-09-18T05:56:21;19.30;99.90
14908;DHT22;7545;52.092;7.006;2023-09-18T05:58:46;19.30;99.90
14908;DHT22;7545;52.092;7.006;2023-09-18T06:01:12;19.30;99.90
14908;DHT22;7545;52.092;7.006;2023-09-18T06:03:37;19.30;99.90
14908;DHT22;7545;52.092;7.006;2023-09-18T06:06:04;19.30;99.90
14908;DHT22;7545;52.092;7.006;2023-09-18T06:08:30;19.30;99.90
14908;DHT22;7545;52.092;7.006;2023-09-18T06:10:57;19.30;99.90
14908;DHT22;7545;52.092;7.006;2023-09-18T06:13:24;19.30;99.90
14908;DHT22;7545;52.092;7.006;2023-09-18T06:15:51;19.30;99.90
14908;DHT22;7545;52.092;7.006;2023-09-18T06:18:18;19.30;99.90
14908;DHT22;7545;52.092;7.006;2023-09-18T06:20:46;19.30;99.90
14908;DHT22;7545;52.092;7.006;2023-09-18T06:23:12;19.30;99.90
14908;DHT22;7545;52.092;7.006;2023-09-18T06:25:38;19.40;99.90
14908;DHT22;7545;52.092;7.006;2023-09-18T06:28:04;19.30;99.90
14908;DHT22;7545;52.092;7.006;2023-09-18T06:30:32;19.30;99.90
14908;DHT22;7545;52.092;7.006;2023-09-18T06:32:59;19.30;99.90
14908;DHT22;7545;52.092;7.006;2023-09-18T06:35:25;19.30;99.90
14908;DHT22;7545;52.092;7.006;2023-09-18T06:37:51;19.40;99.90
14908;DHT22;7545;52.092;7.006;2023-09-18T06:40:17;19.40;99.90
14908;DHT22;7545;52.092;7.006;2023-09-18T06:42:42;19.40;99.90
14908;DHT22;7545;52.092;7.006;2023-09-18T06:45:08;19.40;99.90
14908;DHT22;7545;52.092;7.006;2023-09-18T06:47:34;19.40;99.90
14908;DHT22;7545;52.092;7.006;2023-09-18T06:50:00;19.40;99.90
14908;DHT22;7545;52.092;7.006;2023-09-18T06:52:26;19.40;99.90
14908;DHT22;7545;52.092;7.006;2023-09-18T06:54:53;19.50;99.90
14908;DHT22;7545;52.092;7.006;2023-09-18T06:57:19;19.50;99.90
14908;DHT22;7545;52.092;7.006;2023-09-18T06:59:46;19.50;99.90
14908;DHT22;7545;52.092;7.006;2023-09-18T07:02:12;19.50;99.90
14908;DHT22;7545;52.092;7.006;2023-09-18T07:04:40;19.50;99.90
14908;DHT22;7545;52.092;7.006;2023-09-18T07:07:11;19.50;99.90
14908;DHT22;7545;52.092;7.006;2023-09-18T07:09:37;19.60;99.90
14908;DHT22;7545;52.092;7.006;2023-09-18T07:12:03;19.60;99.90
14908;DHT22;7545;52.092;7.006;2023-09-18T07:14:29;19.60;99.90
14908;DHT22;7545;52.092;7.006;2023-09-18T07:16:56;19.70;99.90
14908;DHT22;7545;52.092;7.006;2023-09-18T07:19:22;19.70;99.90
14908;DHT22;7545;52.092;7.006;2023-09-18T07:21:47;19.60;99.90
14908;DHT22;7545;52.092;7.006;2023-09-18T07:24:13;19.70;99.90
14908;DHT22;7545;52.092;7.006;2023-09-18T07:26:46;19.70;99.90
14908;DHT22;7545;52.092;7.006;2023-09-18T07:29:12;19.80;99.90
14908;DHT22;7545;52.092;7.006;2023-09-18T07:31:38;19.80;99.90
14908;DHT22;7545;52.092;7.006;2023-09-18T07:34:05;19.80;99.90
14908;DHT22;7545;52.092;7.006;2023-09-18T07:36:31;19.80;99.90
14908;DHT22;7545;52.092;7.006;2023-09-18T07:38:57;19.80;99.90
14908;DHT22;7545;52.092;7.006;2023-09-18T07:41:23;19.90;99.90
14908;DHT22;7545;52.092;7.006;2023-09-18T07:43:48;19.90;99.90
14908;DHT22;7545;52.092;7.006;2023-09-18T07:46:14;19.90;99.90
14908;DHT22;7545;52.092;7.006;2023-09-18T07:48:40;19.90;99.90
14908;DHT22;7545;52.092;7.006;2023-09-18T07:51:05;19.90;99.90
14908;DHT22;7545;52.092;7.006;2023-09-18T07:53:31;19.90;99.90
14908;DHT22;7545;52.092;7.006;2023-09-18T07:55:58;20.00;99.90
14908;DHT22;7545;52.092;7.006;2023-09-18T07:58:25;20.00;99.90
14908;DHT22;7545;52.092;7.006;2023-09-18T08:00:56;20.00;99.90
14908;DHT22;7545;52.092;7.006;2023-09-18T08:03:23;20.00;99.90
14908;DHT22;7545;52.092;7.006;2023-09-18T08:05:55;20.00;99.90
14908;DHT22;7545;52.092;7.006;2023-09-18T08:08:21;20.00;99.90
14908;DHT22;7545;52.092;7.006;2023-09-18T08:10:49;20.10;99.90
14908;DHT22;7545;52.092;7.006;2023-09-18T08:13:16;20.10;99.90
14908;DHT22;7545;52.092;7.006;2023-09-18T08:15:42;20.00;99.90
14908;DHT22;7545;52.092;7.006;2023-09-18T08:18:09;20.10;99.90
14908;DHT22;7545;52.092;7.006;2023-09-18T08:20:39;20.10;99.90
14908;DHT22;7545;52.092;7.006;2023-09-18T08:23:05;20.10;99.90
14908;DHT22;7545;52.092;7.006;2023-09-18T08:25:31;20.10;99.90
14908;DHT22;7545;52.092;7.006;2023-09-18T08:27:57;20.10;99.90
14908;DHT22;7545;52.092;7.006;2023-09-18T08:30:23;20.10;99.90
14908;DHT22;7545;52.092;7.006;2023-09-18T08:32:49;20.10;99.90
14908;DHT22;7545;52.092;7.006;2023-09-18T08:35:14;20.10;99.90
14908;DHT22;7545;52.092;7.006;2023-09-18T08:37:41;20.10;99.90
14908;DHT22;7545;52.092;7.006;2023-09-18T08:40:11;20.10;99.90
14908;DHT22;7545;52.092;7.006;2023-09-18T08:42:40;20.20;99.90
14908;DHT22;7545;52.092;7.006;2023-09-18T08:45:10;20.20;99.90
14908;DHT22;7545;52.092;7.006;2023-09-18T08:47:39;20.20;99.90
14908;DHT22;7545;52.092;7.006;2023-09-18T08:50:09;20.20;99.90
14908;DHT22;7545;52.092;7.006;2023-09-18T08:52:36;20.30;99.90
14908;DHT22;7545;52.092;7.006;2023-09-18T08:55:04;20.30;99.90
14908;DHT22;7545;52.092;7.006;2023-09-18T08:57:30;20.30;99.90
14908;DHT22;7545;52.092;7.006;2023-09-18T08:59:57;20.40;99.90
14908;DHT22;7545;52.092;7.006;2023-09-18T09:02:26;20.40;99.90
14908;DHT22;7545;52.092;7.006;2023-09-18T09:04:52;20.40;99.90
14908;DHT22;7545;52.092;7.006;2023-09-18T09:07:17;20.40;99.90
14908;DHT22;7545;52.092;7.006;2023-09-18T09:09:43;20.40;99.90
14908;DHT22;7545;52.092;7.006;2023-09-18T09:12:09;20.40;99.90
14908;DHT22;7545;52.092;7.006;2023-09-18T09:14:35;20.50;99.90
14908;DHT22;7545;52.092;7.006;2023-09-18T09:17:03;20.50;99.90
14908;DHT22;7545;52.092;7.006;2023-09-18T09:19:34;20.50;99.90
14908;DHT22;7545;52.092;7.006;2023-09-18T09:22:04;20.60;99.90
14908;DHT22;7545;52.092;7.006;2023-09-18T09:24:43;20.60;99.90
14908;DHT22;7545;52.092;7.006;2023-09-18T09:27:10;20.60;99.90
14908;DHT22;7545;52.092;7.006;2023-09-18T09:29:36;20.60;99.90
14908;DHT22;7545;52.092;7.006;2023-09-18T09:32:15;20.70;99.90
14908;DHT22;7545;52.092;7.006;2023-09-18T09:34:42;20.70;99.90
14908;DHT22;7545;52.092;7.006;2023-09-18T09:37:08;20.80;99.90
14908;DHT22;7545;52.092;7.006;2023-09-18T09:39:34;20.80;99.90
14908;DHT22;7545;52.092;7.006;2023-09-18T09:42:01;20.80;99.90
14908;DHT22;7545;52.092;7.006;2023-09-18T09:44:31;20.90;99.90
14908;DHT22;7545;52.092;7.006;2023-09-18T09:46:59;20.90;99.90
14908;DHT22;7545;52.092;7.006;2023-09-18T09:49:25;20.90;99.90
14908;DHT22;7545;52.092;7.006;2023-09-18T09:51:53;21.00;99.90
14908;DHT22;7545;52.092;7.006;2023-09-18T09:54:32;21.10;99.90
14908;DHT22;7545;52.092;7.006;2023-09-18T09:57:04;21.20;99.90
14908;DHT22;7545;52.092;7.006;2023-09-18T09:59:29;21.20;99.90
14908;DHT22;7545;52.092;7.006;2023-09-18T10:01:58;21.20;99.90
14908;DHT22;7545;52.092;7.006;2023-09-18T10:04:26;21.20;99.90
14908;DHT22;7545;52.092;7.006;2023-09-18T10:06:57;21.30;99.90
14908;DHT22;7545;52.092;7.006;2023-09-18T10:09:26;21.30;99.90
14908;DHT22;7545;52.092;7.006;2023-09-18T10:11:55;21.30;99.90
14908;DHT22;7545;52.092;7.006;2023-09-18T10:14:29;21.40;99.90
14908;DHT22;7545;52.092;7.006;2023-09-18T10:16:59;21.40;99.90
14908;DHT22;7545;52.092;7.006;2023-09-18T10:19:33;21.50;99.90
14908;DHT22;7545;52.092;7.006;2023-09-18T10:24:48;21.50;99.90
14908;DHT22;7545;52.092;7.006;2023-09-18T10:27:16;21.40;99.90
14908;DHT22;7545;52.092;7.006;2023-09-18T10:29:44;21.40;99.90
14908;DHT22;7545;52.092;7.006;2023-09-18T10:32:14;21.40;99.90
14908;DHT22;7545;52.092;7.006;2023-09-18T10:34:40;21.50;99.90
14908;DHT22;7545;52.092;7.006;2023-09-18T10:37:08;21.50;99.90
14908;DHT22;7545;52.092;7.006;2023-09-18T10:39:37;21.60;99.90
14908;DHT22;7545;52.092;7.006;2023-09-18T10:42:03;21.60;99.90
14908;DHT22;7545;52.092;7.006;2023-09-18T10:44:34;21.60;99.90
14908;DHT22;7545;52.092;7.006;2023-09-18T10:47:01;21.70;99.90
14908;DHT22;7545;52.092;7.006;2023-09-18T10:49:28;21.70;99.90
14908;DHT22;7545;52.092;7.006;2023-09-18T10:51:55;21.70;99.90
14908;DHT22;7545;52.092;7.006;2023-09-18T10:54:25;21.80;99.90
14908;DHT22;7545;52.092;7.006;2023-09-18T10:56:52;21.80;99.90
14908;DHT22;7545;52.092;7.006;2023-09-18T10:59:18;21.90;99.90
14908;DHT22;7545;52.092;7.006;2023-09-18T11:01:44;22.00;99.90
14908;DHT22;7545;52.092;7.006;2023-09-18T11:04:11;22.10;99.90
14908;DHT22;7545;52.092;7.006;2023-09-18T11:09:28;22.10;99.90
14908;DHT22;7545;52.092;7.006;2023-09-18T11:14:56;22.20;99.90
14908;DHT22;7545;52.092;7.006;2023-09-18T11:22:39;22.50;99.90
14908;DHT22;7545;52.092;7.006;2023-09-18T11:28:00;22.70;99.90
14908;DHT22;7545;52.092;7.006;2023-09-18T11:30:28;22.70;99.90
14908;DHT22;7545;52.092;7.006;2023-09-18T11:32:57;22.70;99.90
14908;DHT22;7545;52.092;7.006;2023-09-18T11:35:24;22.70;99.90
14908;DHT22;7545;52.092;7.006;2023-09-18T11:38:10;22.70;99.90
14908;DHT22;7545;52.092;7.006;2023-09-18T11:40:38;22.70;99.90
14908;DHT22;7545;52.092;7.006;2023-09-18T11:45:54;22.60;99.90
14908;DHT22;7545;52.092;7.006;2023-09-18T11:48:22;22.70;99.90
14908;DHT22;7545;52.092;7.006;2023-09-18T11:50:51;22.70;99.90
14908;DHT22;7545;52.092;7.006;2023-09-18T11:53:18;22.70;99.90
14908;DHT22;7545;52.092;7.006;2023-09-18T11:55:44;22.70;99.90
14908;DHT22;7545;52.092;7.006;2023-09-18T11:58:10;22.70;99.90
14908;DHT22;7545;52.092;7.006;2023-09-18T12:00:36;22.70;99.90
14908;DHT22;7545;52.092;7.006;2023-09-18T12:03:37;22.80;99.90
14908;DHT22;7545;52.092;7.006;2023-09-18T12:06:03;22.90;99.90
14908;DHT22;7545;52.092;7.006;2023-09-18T12:08:31;22.90;99.90
14908;DHT22;7545;52.092;7.006;2023-09-18T12:10:58;23.00;99.90
14908;DHT22;7545;52.092;7.006;2023-09-18T12:13:27;23.00;99.90
14908;DHT22;7545;52.092;7.006;2023-09-18T12:16:00;22.90;99.90
14908;DHT22;7545;52.092;7.006;2023-09-18T12:18:27;22.90;99.90
14908;DHT22;7545;52.092;7.006;2023-09-18T12:20:56;22.80;99.90
14908;DHT22;7545;52.092;7.006;2023-09-18T12:23:24;22.80;99.90
14908;DHT22;7545;52.092;7.006;2023-09-18T12:25:56;22.70;99.90
14908;DHT22;7545;52.092;7.006;2023-09-18T12:28:22;22.70;99.90
14908;DHT22;7545;52.092;7.006;2023-09-18T12:30:48;22.60;99.90
14908;DHT22;7545;52.092;7.006;2023-09-18T12:33:16;22.60;99.90
14908;DHT22;7545;52.092;7.006;2023-09-18T12:35:42;22.50;99.90
14908;DHT22;7545;52.092;7.006;2023-09-18T12:38:16;22.50;99.90
14908;DHT22;7545;52.092;7.006;2023-09-18T12:40:43;22.50;99.90
14908;DHT22;7545;52.092;7.006;2023-09-18T12:43:12;22.60;99.90
14908;DHT22;7545;52.092;7.006;2023-09-18T12:45:40;22.60;99.90
14908;DHT22;7545;52.092;7.006;2023-09-18T12:48:06;22.70;99.90
14908;DHT22;7545;52.092;7.006;2023-09-18T12:50:32;22.80;99.90
14908;DHT22;7545;52.092;7.006;2023-09-18T12:53:10;22.90;99.90
14908;DHT22;7545;52.092;7.006;2023-09-18T12:55:37;23.00;99.90
14908;DHT22;7545;52.092;7.006;2023-09-18T12:58:03;23.10;99.90
14908;DHT22;7545;52.092;7.006;2023-09-18T13:00:35;23.10;99.90
14908;DHT22;7545;52.092;7.006;2023-09-18T13:03:04;23.10;99.90
14908;DHT22;7545;52.092;7.006;2023-09-18T13:05:30;23.20;99.90
14908;DHT22;7545;52.092;7.006;2023-09-18T13:08:04;23.20;99.90
14908;DHT22;7545;52.092;7.006;2023-09-18T13:10:42;23.20;99.90
14908;DHT22;7545;52.092;7.006;2023-09-18T13:13:21;23.20;99.90
14908;DHT22;7545;52.092;7.006;2023-09-18T13:15:48;23.30;99.90
14908;DHT22;7545;52.092;7.006;2023-09-18T13:18:15;23.40;99.90
14908;DHT22;7545;52.092;7.006;2023-09-18T13:20:41;23.50;99.90
14908;DHT22;7545;52.092;7.006;2023-09-18T13:23:07;23.50;99.90
14908;DHT22;7545;52.092;7.006;2023-09-18T13:25:40;23.60;99.90
14908;DHT22;7545;52.092;7.006;2023-09-18T13:28:10;23.60;99.90
14908;DHT22;7545;52.092;7.006;2023-09-18T13:30:36;23.70;99.90
14908;DHT22;7545;52.092;7.006;2023-09-18T13:35:32;23.70;99.90
14908;DHT22;7545;52.092;7.006;2023-09-18T13:37:57;23.80;99.90
14908;DHT22;7545;52.092;7.006;2023-09-18T13:40:23;23.80;99.90
14908;DHT22;7545;52.092;7.006;2023-09-18T13:42:49;23.80;99.90
14908;DHT22;7545;52.092;7.006;2023-09-18T13:45:15;23.80;99.90
14908;DHT22;7545;52.092;7.006;2023-09-18T13:47:43;23.70;99.90
14908;DHT22;7545;52.092;7.006;2023-09-18T13:50:09;23.70;99.90
14908;DHT22;7545;52.092;7.006;2023-09-18T13:52:36;23.70;99.90
14908;DHT22;7545;52.092;7.006;2023-09-18T13:55:03;23.60;99.90
14908;DHT22;7545;52.092;7.006;2023-09-18T13:57:34;23.70;99.90
14908;DHT22;7545;52.092;7.006;2023-09-18T14:00:01;23.60;99.90
14908;DHT22;7545;52.092;7.006;2023-09-18T14:02:30;23.60;99.90
14908;DHT22;7545;52.092;7.006;2023-09-18T14:04:58;23.60;99.90
14908;DHT22;7545;52.092;7.006;2023-09-18T14:07:24;23.60;99.90
14908;DHT22;7545;52.092;7.006;2023-09-18T14:09:50;23.60;99.90
14908;DHT22;7545;52.092;7.006;2023-09-18T14:12:16;23.70;99.90
14908;DHT22;7545;52.092;7.006;2023-09-18T14:14:42;23.70;99.90
14908;DHT22;7545;52.092;7.006;2023-09-18T14:17:08;23.70;99.90
14908;DHT22;7545;52.092;7.006;2023-09-18T14:19:34;23.70;99.90
14908;DHT22;7545;52.092;7.006;2023-09-18T14:22:00;23.60;99.90
14908;DHT22;7545;52.092;7.006;2023-09-18T14:24:33;23.60;99.90
14908;DHT22;7545;52.092;7.006;2023-09-18T14:27:06;23.50;99.90
14908;DHT22;7545;52.092;7.006;2023-09-18T14:29:36;23.50;99.90
14908;DHT22;7545;52.092;7.006;2023-09-18T14:32:02;23.50;99.90
14908;DHT22;7545;52.092;7.006;2023-09-18T14:34:29;23.50;99.90
14908;DHT22;7545;52.092;7.006;2023-09-18T14:36:56;23.50;99.90
14908;DHT22;7545;52.092;7.006;2023-09-18T14:39:22;23.50;99.90
14908;DHT22;7545;52.092;7.006;2023-09-18T14:41:47;23.40;99.90
14908;DHT22;7545;52.092;7.006;2023-09-18T14:44:14;23.40;99.90
14908;DHT22;7545;52.092;7.006;2023-09-18T14:46:40;23.30;99.90
14908;DHT22;7545;52.092;7.006;2023-09-18T14:49:06;23.30;99.90
14908;DHT22;7545;52.092;7.006;2023-09-18T14:51:35;23.30;99.90
14908;DHT22;7545;52.092;7.006;2023-09-18T14:54:02;23.30;99.90
14908;DHT22;7545;52.092;7.006;2023-09-18T14:56:30;23.30;99.90
14908;DHT22;7545;52.092;7.006;2023-09-18T14:58:55;23.30;99.90
14908;DHT22;7545;52.092;7.006;2023-09-18T15:01:22;23.30;99.90
14908;DHT22;7545;52.092;7.006;2023-09-18T15:03:48;23.30;99.90
14908;DHT22;7545;52.092;7.006;2023-09-18T15:06:17;23.30;99.90
14908;DHT22;7545;52.092;7.006;2023-09-18T15:08:43;23.30;99.90
14908;DHT22;7545;52.092;7.006;2023-09-18T15:11:10;23.30;99.90
14908;DHT22;7545;52.092;7.006;2023-09-18T15:13:36;23.30;99.90
14908;DHT22;7545;52.092;7.006;2023-09-18T15:16:02;23.30;99.90
14908;DHT22;7545;52.092;7.006;2023-09-18T15:18:28;23.30;99.90
14908;DHT22;7545;52.092;7.006;2023-09-18T15:20:54;23.30;99.90
14908;DHT22;7545;52.092;7.006;2023-09-18T15:23:21;23.30;99.90
14908;DHT22;7545;52.092;7.006;2023-09-18T15:25:48;23.30;99.90
14908;DHT22;7545;52.092;7.006;2023-09-18T15:28:14;23.30;99.90
14908;DHT22;7545;52.092;7.006;2023-09-18T15:30:39;23.30;99.90
14908;DHT22;7545;52.092;7.006;2023-09-18T15:33:05;23.30;99.90
14908;DHT22;7545;52.092;7.006;2023-09-18T15:35:31;23.30;99.90
14908;DHT22;7545;52.092;7.006;2023-09-18T15:37:57;23.20;99.90
14908;DHT22;7545;52.092;7.006;2023-09-18T15:40:23;23.30;99.90
14908;DHT22;7545;52.092;7.006;2023-09-18T15:42:49;23.30;99.90
14908;DHT22;7545;52.092;7.006;2023-09-18T15:45:15;23.30;99.90
14908;DHT22;7545;52.092;7.006;2023-09-18T15:47:41;23.20;99.90
14908;DHT22;7545;52.092;7.006;2023-09-18T15:50:08;23.20;99.90
14908;DHT22;7545;52.092;7.006;2023-09-18T15:52:35;23.20;99.90
14908;DHT22;7545;52.092;7.006;2023-09-18T15:55:01;23.20;99.90
14908;DHT22;7545;52.092;7.006;2023-09-18T15:57:29;23.20;99.90
14908;DHT22;7545;52.092;7.006;2023-09-18T15:59:55;23.20;99.90
14908;DHT22;7545;52.092;7.006;2023-09-18T16:02:22;23.10;99.90
14908;DHT22;7545;52.092;7.006;2023-09-18T16:04:49;23.10;99.90
14908;DHT22;7545;52.092;7.006;2023-09-18T16:07:14;23.00;99.90